createdAt,value
2022-10-24T00:00:01.378Z,15.15
2022-10-24T00:02:48.833Z,15.15
2022-10-24T00:05:36.216Z,15.16
2022-10-24T00:08:23.493Z,15.15
2022-10-24T00:11:12.477Z,15.15
2022-10-24T00:14:03.161Z,15.16
2022-10-24T00:16:50.902Z,15.15
2022-10-24T00:19:38.275Z,15.15
2022-10-24T00:22:25.578Z,15.15
2022-10-24T00:25:12.917Z,15.15
2022-10-24T00:28:00.748Z,15.14
2022-10-24T00:30:52.902Z,15.14
2022-10-24T00:33:40.649Z,15.12
2022-10-24T00:36:29.530Z,15.11
2022-10-24T00:39:16.820Z,15.10
2022-10-24T00:42:04.508Z,15.08
2022-10-24T00:44:55.156Z,15.08
2022-10-24T00:47:44.224Z,15.07
2022-10-24T00:50:32.076Z,15.07
2022-10-24T00:53:20.922Z,15.05
2022-10-24T00:56:09.919Z,15.06
2022-10-24T00:58:59.553Z,15.05
2022-10-24T01:01:48.799Z,15.06
2022-10-24T01:04:38.035Z,15.03
2022-10-24T01:07:47.887Z,15.05
2022-10-24T01:10:45.581Z,15.03
2022-10-24T01:13:44.708Z,15.02
2022-10-24T01:16:40.283Z,14.98
2022-10-24T01:20:25.688Z,14.98
2022-10-24T01:24:02.657Z,14.96
2022-10-24T01:27:21.127Z,14.93
2022-10-24T01:30:11.931Z,14.91
2022-10-24T01:33:04.894Z,14.91
2022-10-24T01:35:57.731Z,14.88
2022-10-24T01:38:53.882Z,14.87
2022-10-24T01:41:43.636Z,14.86
2022-10-24T01:44:38.463Z,14.84
2022-10-24T01:47:32.027Z,14.83
2022-10-24T01:50:22.679Z,14.83
2022-10-24T01:53:11.359Z,14.82
2022-10-24T01:55:59.706Z,14.80
2022-10-24T01:58:47.109Z,14.82
2022-10-24T02:01:36.450Z,14.81
2022-10-24T02:04:27.452Z,14.79
2022-10-24T02:07:17.534Z,14.80
2022-10-24T02:10:11.169Z,14.81
2022-10-24T02:13:04.932Z,14.78
2022-10-24T02:15:56.950Z,14.79
2022-10-24T02:18:44.833Z,14.79
2022-10-24T02:21:44.041Z,14.78
2022-10-24T02:24:38.278Z,14.79
2022-10-24T02:27:34.173Z,14.79
2022-10-24T02:30:25.417Z,14.78
2022-10-24T02:33:14.230Z,14.78
2022-10-24T02:36:02.372Z,14.78
2022-10-24T02:38:53.790Z,14.79
2022-10-24T02:41:44.174Z,14.77
2022-10-24T02:44:33.654Z,14.78
2022-10-24T02:47:22.507Z,14.80
2022-10-24T02:50:11.185Z,14.79
2022-10-24T02:52:58.852Z,14.80
2022-10-24T02:55:47.837Z,14.77
2022-10-24T02:58:35.754Z,14.80
2022-10-24T03:01:23.568Z,14.81
2022-10-24T03:04:11.442Z,14.81
2022-10-24T03:06:58.708Z,14.82
2022-10-24T03:09:46.225Z,14.82
2022-10-24T03:12:35.371Z,14.82
2022-10-24T03:15:23.370Z,14.80
2022-10-24T03:18:11.206Z,14.81
2022-10-24T03:20:58.788Z,14.83
2022-10-24T03:23:46.239Z,14.82
2022-10-24T03:26:33.739Z,14.83
2022-10-24T03:29:22.569Z,14.82
2022-10-24T03:32:10.199Z,14.83
2022-10-24T03:34:57.616Z,14.84
2022-10-24T03:37:45.373Z,14.84
2022-10-24T03:40:32.881Z,14.84
2022-10-24T03:43:21.393Z,14.84
2022-10-24T03:46:10.152Z,14.85
2022-10-24T03:48:57.840Z,14.85
2022-10-24T03:51:45.051Z,14.86
2022-10-24T03:54:32.418Z,14.86
2022-10-24T04:00:13.228Z,14.89
2022-10-24T04:03:02.246Z,14.90
2022-10-24T04:05:49.934Z,14.90
2022-10-24T04:08:37.309Z,14.91
2022-10-24T04:11:24.713Z,14.92
2022-10-24T04:14:12.160Z,14.92
2022-10-24T04:16:59.487Z,14.93
2022-10-24T04:19:48.290Z,14.94
2022-10-24T04:22:36.152Z,14.94
2022-10-24T04:25:24.040Z,14.95
2022-10-24T04:28:11.569Z,14.96
2022-10-24T04:30:59.202Z,14.98
2022-10-24T04:33:46.735Z,14.98
2022-10-24T04:36:36.101Z,14.99
2022-10-24T04:39:23.751Z,15.00
2022-10-24T04:42:13.312Z,15.00
2022-10-24T04:45:00.767Z,15.00
2022-10-24T04:47:48.406Z,15.02
2022-10-24T04:50:36.014Z,15.01
2022-10-24T04:53:25.289Z,15.02
2022-10-24T04:56:12.928Z,15.03
2022-10-24T04:59:00.320Z,15.03
2022-10-24T05:01:47.784Z,15.03
2022-10-24T05:04:35.589Z,15.04
2022-10-24T05:07:23.083Z,15.04
2022-10-24T05:10:13.825Z,15.05
2022-10-24T05:13:01.510Z,15.06
2022-10-24T05:15:48.809Z,15.06
2022-10-24T05:18:36.455Z,15.05
2022-10-24T05:21:23.708Z,15.06
2022-10-24T05:24:11.481Z,15.07
2022-10-24T05:27:00.306Z,15.07
2022-10-24T05:29:48.090Z,15.04
2022-10-24T05:32:38.729Z,15.07
2022-10-24T05:35:27.470Z,15.07
2022-10-24T05:38:14.981Z,15.10
2022-10-24T05:41:02.334Z,15.10
2022-10-24T05:43:50.982Z,15.09
2022-10-24T05:46:38.607Z,15.09
2022-10-24T05:49:26.121Z,15.10
2022-10-24T05:52:13.571Z,15.10
2022-10-24T05:55:08.732Z,15.11
2022-10-24T05:57:56.558Z,15.11
2022-10-24T06:00:46.359Z,15.11
2022-10-24T06:03:36.949Z,15.11
2022-10-24T06:06:24.998Z,15.11
2022-10-24T06:09:13.589Z,15.12
2022-10-24T06:12:00.988Z,15.13
2022-10-24T06:14:48.350Z,15.14
2022-10-24T06:17:37.586Z,15.15
2022-10-24T06:20:25.153Z,15.17
2022-10-24T06:23:13.017Z,15.18
2022-10-24T06:26:02.837Z,15.20
2022-10-24T06:28:50.336Z,15.23
2022-10-24T06:31:38.478Z,15.24
2022-10-24T06:34:27.769Z,15.25
2022-10-24T06:37:15.577Z,15.27
2022-10-24T06:40:02.895Z,15.30
2022-10-24T06:42:50.489Z,15.32
2022-10-24T06:45:41.845Z,15.36
2022-10-24T06:48:29.599Z,15.36
2022-10-24T06:51:18.595Z,15.39
2022-10-24T06:54:06.654Z,15.42
2022-10-24T06:56:54.145Z,15.45
2022-10-24T06:59:41.648Z,15.48
2022-10-24T07:02:29.288Z,15.50
2022-10-24T07:05:17.424Z,15.54
2022-10-24T07:08:07.290Z,15.56
2022-10-24T07:10:54.812Z,15.59
2022-10-24T07:13:42.401Z,15.61
2022-10-24T07:16:30.300Z,15.66
2022-10-24T07:19:17.496Z,15.68
2022-10-24T07:22:05.130Z,15.72
2022-10-24T07:25:00.612Z,15.76
2022-10-24T07:27:49.597Z,15.80
2022-10-24T07:30:37.699Z,15.83
2022-10-24T07:33:25.505Z,15.87
2022-10-24T07:36:20.721Z,15.92
2022-10-24T07:39:07.954Z,15.94
2022-10-24T07:41:57.125Z,15.99
2022-10-24T07:44:44.821Z,16.03
2022-10-24T07:47:32.560Z,16.09
2022-10-24T07:50:20.433Z,16.15
2022-10-24T07:53:10.312Z,16.21
2022-10-24T07:56:02.198Z,16.26
2022-10-24T07:58:51.191Z,16.31
2022-10-24T08:01:38.891Z,16.39
2022-10-24T08:04:26.667Z,16.47
2022-10-24T08:07:14.375Z,16.54
2022-10-24T08:10:02.008Z,16.62
2022-10-24T08:12:49.555Z,16.70
2022-10-24T08:15:39.031Z,16.77
2022-10-24T08:18:30.106Z,16.84
2022-10-24T08:21:20.888Z,16.87
2022-10-24T08:24:09.123Z,16.90
2022-10-24T08:26:56.991Z,16.90
2022-10-24T08:29:44.660Z,16.93
2022-10-24T08:32:33.197Z,16.96
2022-10-24T08:35:22.158Z,16.98
2022-10-24T08:38:09.932Z,17.02
2022-10-24T08:40:58.162Z,17.06
2022-10-24T08:43:45.947Z,17.10
2022-10-24T08:46:52.138Z,17.12
2022-10-24T08:49:50.295Z,17.16
2022-10-24T08:52:44.910Z,17.19
2022-10-24T08:55:49.127Z,17.24
2022-10-24T08:58:41.943Z,17.29
2022-10-24T09:01:37.148Z,17.34
2022-10-24T09:04:30.134Z,17.42
2022-10-24T09:07:22.210Z,17.53
2022-10-24T09:10:20.307Z,17.61
2022-10-24T09:13:16.000Z,17.71
2022-10-24T09:16:04.626Z,17.82
2022-10-24T09:18:57.702Z,17.98
2022-10-24T09:21:46.051Z,18.19
2022-10-24T09:24:45.772Z,18.49
2022-10-24T09:27:36.706Z,18.84
2022-10-24T09:30:31.427Z,19.22
2022-10-24T09:33:29.498Z,19.64
2022-10-24T09:36:20.279Z,20.05
2022-10-24T09:39:28.024Z,20.48
2022-10-24T09:42:23.886Z,20.86
2022-10-24T09:45:43.009Z,21.35
2022-10-24T09:48:37.505Z,21.73
2022-10-24T09:51:33.841Z,22.11
2022-10-24T09:54:30.227Z,22.48
2022-10-24T09:57:19.361Z,22.82
2022-10-24T10:00:08.915Z,23.11
2022-10-24T10:03:06.488Z,23.40
2022-10-24T10:05:58.497Z,23.64
2022-10-24T10:08:52.242Z,23.85
2022-10-24T10:11:40.777Z,24.05
2022-10-24T10:14:41.635Z,24.24
2022-10-24T10:17:31.959Z,24.42
2022-10-24T10:20:28.328Z,24.58
2022-10-24T10:23:26.626Z,24.67
2022-10-24T10:26:25.320Z,24.66
2022-10-24T10:29:24.917Z,24.60
2022-10-24T10:32:24.453Z,24.49
2022-10-24T10:35:21.296Z,24.35
2022-10-24T10:38:28.074Z,24.19
2022-10-24T10:41:33.992Z,24.02
2022-10-24T10:44:48.190Z,23.83
2022-10-24T10:47:52.305Z,23.64
2022-10-24T10:50:47.469Z,23.48
2022-10-24T10:53:41.752Z,23.32
2022-10-24T10:56:36.269Z,23.17
2022-10-24T10:59:42.387Z,23.02
2022-10-24T11:03:18.097Z,22.83
2022-10-24T11:06:27.746Z,22.64
2022-10-24T11:09:32.332Z,22.45
2022-10-24T11:12:26.234Z,22.28
2022-10-24T11:15:22.870Z,22.12
2022-10-24T11:18:19.272Z,21.95
2022-10-24T11:21:10.643Z,21.80
2022-10-24T11:24:04.462Z,21.69
2022-10-24T11:27:00.986Z,21.57
2022-10-24T11:29:56.631Z,21.44
2022-10-24T11:32:53.620Z,21.34
2022-10-24T11:36:07.634Z,21.24
2022-10-24T11:39:02.678Z,21.12
2022-10-24T11:41:59.624Z,21.03
2022-10-24T11:44:54.964Z,20.94
2022-10-24T11:48:01.158Z,20.84
2022-10-24T11:50:55.374Z,20.74
2022-10-24T11:53:54.694Z,20.65
2022-10-24T11:56:48.483Z,20.59
2022-10-24T11:59:38.515Z,20.52
2022-10-24T12:03:09.309Z,20.48
2022-10-24T12:06:18.115Z,20.40
2022-10-24T12:09:44.417Z,20.34
2022-10-24T12:12:56.859Z,20.27
2022-10-24T12:15:55.595Z,20.22
2022-10-24T12:18:48.507Z,20.17
2022-10-24T12:21:42.788Z,20.13
2022-10-24T12:24:34.714Z,20.08
2022-10-24T12:27:31.747Z,20.06
2022-10-24T12:30:24.254Z,20.02
2022-10-24T12:33:25.895Z,19.98
2022-10-24T12:36:13.641Z,19.95
2022-10-24T12:39:06.165Z,19.94
2022-10-24T12:41:56.000Z,19.92
2022-10-24T12:44:46.875Z,19.92
2022-10-24T12:47:40.894Z,19.90
2022-10-24T12:51:15.245Z,19.88
2022-10-24T12:54:19.393Z,19.87
2022-10-24T12:57:29.741Z,19.85
2022-10-24T13:00:26.667Z,19.85
2022-10-24T13:03:23.895Z,19.83
2022-10-24T13:06:20.860Z,19.84
2022-10-24T13:09:25.139Z,19.82
2022-10-24T13:12:40.436Z,19.81
2022-10-24T13:15:42.245Z,19.78
2022-10-24T13:18:47.912Z,19.75
2022-10-24T13:21:46.726Z,19.73
2022-10-24T13:24:40.005Z,19.69
2022-10-24T13:27:32.308Z,19.67
2022-10-24T13:30:29.289Z,19.65
2022-10-24T13:33:46.388Z,19.63
2022-10-24T13:36:35.872Z,19.61
2022-10-24T13:39:29.839Z,19.59
2022-10-24T13:42:32.994Z,19.57
2022-10-24T13:45:28.929Z,19.55
2022-10-24T13:48:21.525Z,19.53
2022-10-24T13:51:18.593Z,19.52
2022-10-24T13:54:16.231Z,19.51
2022-10-24T13:57:03.952Z,19.49
2022-10-24T13:59:59.646Z,19.50
2022-10-24T14:02:47.517Z,19.49
2022-10-24T14:05:41.666Z,19.48
2022-10-24T14:08:34.852Z,19.47
2022-10-24T14:11:26.920Z,19.47
2022-10-24T14:14:28.762Z,19.48
2022-10-24T14:17:26.184Z,19.46
2022-10-24T14:20:24.445Z,19.46
2022-10-24T14:23:29.504Z,19.44
2022-10-24T14:26:23.785Z,19.42
2022-10-24T14:29:23.731Z,19.40
2022-10-24T14:32:16.559Z,19.38
2022-10-24T14:35:13.659Z,19.36
2022-10-24T14:38:04.916Z,19.34
2022-10-24T14:41:07.792Z,19.32
2022-10-24T14:43:58.111Z,19.29
2022-10-24T14:46:48.038Z,19.28
2022-10-24T14:49:38.211Z,19.25
2022-10-24T14:52:37.123Z,19.23
2022-10-24T14:55:25.077Z,19.22
2022-10-24T14:58:25.639Z,19.19
2022-10-24T15:01:19.631Z,19.17
2022-10-24T15:04:22.564Z,19.14
2022-10-24T15:07:31.344Z,19.12
2022-10-24T15:10:30.224Z,19.08
2022-10-24T15:13:21.661Z,19.06
2022-10-24T15:16:28.367Z,19.05
2022-10-24T15:19:19.443Z,19.02
2022-10-24T15:22:06.781Z,18.99
2022-10-24T15:24:57.907Z,18.98
2022-10-24T15:27:46.925Z,18.95
2022-10-24T15:30:37.932Z,18.94
2022-10-24T15:33:25.339Z,18.91
2022-10-24T15:36:22.943Z,18.89
2022-10-24T15:39:17.397Z,18.86
2022-10-24T15:42:06.301Z,18.85
2022-10-24T15:44:53.957Z,18.84
2022-10-24T15:47:41.380Z,18.82
2022-10-24T15:50:28.529Z,18.80
2022-10-24T15:53:20.023Z,18.79
2022-10-24T15:56:08.468Z,18.76
2022-10-24T15:58:57.450Z,18.75
2022-10-24T16:01:49.944Z,18.73
2022-10-24T16:04:40.411Z,18.69
2022-10-24T16:07:27.949Z,18.67
2022-10-24T16:10:19.838Z,18.63
2022-10-24T16:13:07.610Z,18.61
2022-10-24T16:15:56.442Z,18.59
2022-10-24T16:18:44.098Z,18.55
2022-10-24T16:21:31.498Z,18.54
2022-10-24T16:24:18.902Z,18.51
2022-10-24T16:27:06.261Z,18.48
2022-10-24T16:29:53.938Z,18.46
2022-10-24T16:32:44.245Z,18.43
2022-10-24T16:35:35.394Z,18.41
2022-10-24T16:38:22.929Z,18.38
2022-10-24T16:41:16.807Z,18.35
2022-10-24T16:44:06.517Z,18.33
2022-10-24T16:46:55.169Z,18.30
2022-10-24T16:49:45.453Z,18.29
2022-10-24T16:52:33.319Z,18.26
2022-10-24T16:55:21.212Z,18.25
2022-10-24T16:58:08.805Z,18.23
2022-10-24T17:01:04.346Z,18.21
2022-10-24T17:03:52.499Z,18.20
2022-10-24T17:06:41.787Z,18.18
2022-10-24T17:09:29.641Z,18.18
2022-10-24T17:12:17.987Z,18.16
2022-10-24T17:15:06.801Z,18.15
2022-10-24T17:17:54.483Z,18.14
2022-10-24T17:20:45.220Z,18.14
2022-10-24T17:23:35.257Z,18.13
2022-10-24T17:26:25.499Z,18.13
2022-10-24T17:29:19.398Z,18.13
2022-10-24T17:32:07.864Z,18.12
2022-10-24T17:34:56.250Z,18.11
2022-10-24T17:37:55.817Z,18.12
2022-10-24T17:40:48.707Z,18.11
2022-10-24T17:43:37.351Z,18.10
2022-10-24T17:46:25.832Z,18.08
2022-10-24T17:49:17.891Z,18.08
2022-10-24T17:52:09.377Z,18.06
2022-10-24T17:54:57.404Z,18.04
2022-10-24T17:57:46.802Z,18.02
2022-10-24T18:00:35.704Z,17.99
2022-10-24T18:03:23.728Z,17.98
2022-10-24T18:06:12.844Z,17.95
2022-10-24T18:09:00.706Z,17.92
2022-10-24T18:11:48.633Z,17.91
2022-10-24T18:14:39.640Z,17.89
2022-10-24T18:17:27.576Z,17.86
2022-10-24T18:20:16.434Z,17.83
2022-10-24T18:23:04.727Z,17.81
2022-10-24T18:25:51.868Z,17.80
2022-10-24T18:28:39.718Z,17.79
2022-10-24T18:31:35.145Z,17.79
2022-10-24T18:34:25.301Z,17.76
2022-10-24T18:37:15.260Z,17.75
2022-10-24T18:40:05.627Z,17.75
2022-10-24T18:42:58.882Z,17.73
2022-10-24T18:45:48.360Z,17.73
2022-10-24T18:48:37.987Z,17.73
2022-10-24T18:51:34.938Z,17.73
2022-10-24T18:54:23.485Z,17.71
2022-10-24T18:57:23.833Z,17.72
2022-10-24T19:00:17.409Z,17.71
2022-10-24T19:03:21.787Z,17.70
2022-10-24T19:06:23.685Z,17.70
2022-10-24T19:09:17.655Z,17.70
2022-10-24T19:12:07.179Z,17.70
2022-10-24T19:14:54.915Z,17.70
2022-10-24T19:17:42.786Z,17.71
2022-10-24T19:20:35.733Z,17.70
2022-10-24T19:23:24.845Z,17.70
2022-10-24T19:26:13.945Z,17.71
2022-10-24T19:29:04.818Z,17.70
2022-10-24T19:31:53.399Z,17.71
2022-10-24T19:34:42.604Z,17.71
2022-10-24T19:37:30.331Z,17.71
2022-10-24T19:40:19.381Z,17.70
2022-10-24T19:43:06.929Z,17.71
2022-10-24T19:46:07.801Z,17.69
2022-10-24T19:49:03.817Z,17.69
2022-10-24T19:51:52.493Z,17.70
2022-10-24T19:54:40.659Z,17.69
2022-10-24T19:57:30.194Z,17.69
2022-10-24T20:00:21.155Z,17.70
2022-10-24T20:03:08.951Z,17.69
2022-10-24T20:06:00.502Z,17.68
2022-10-24T20:08:49.329Z,17.67
2022-10-24T20:11:36.570Z,17.67
2022-10-24T20:14:25.791Z,17.67
2022-10-24T20:17:13.352Z,17.65
2022-10-24T20:20:01.180Z,17.65
2022-10-24T20:22:49.429Z,17.63
2022-10-24T20:25:37.181Z,17.60
2022-10-24T20:28:24.614Z,17.62
2022-10-24T20:31:22.159Z,17.62
2022-10-24T20:34:10.864Z,17.61
2022-10-24T20:36:58.424Z,17.59
2022-10-24T20:39:45.874Z,17.60
2022-10-24T20:42:33.381Z,17.61
2022-10-24T20:45:22.947Z,17.59
2022-10-24T20:48:13.286Z,17.60
2022-10-24T20:51:11.701Z,17.59
2022-10-24T20:53:59.497Z,17.59
2022-10-24T20:56:55.935Z,17.59
2022-10-24T20:59:43.233Z,17.58
2022-10-24T21:02:30.796Z,17.57
2022-10-24T21:05:19.971Z,17.59
2022-10-24T21:08:08.001Z,17.57
2022-10-24T21:10:55.417Z,17.58
2022-10-24T21:13:43.095Z,17.57
2022-10-24T21:16:31.422Z,17.56
2022-10-24T21:19:18.876Z,17.57
2022-10-24T21:22:07.800Z,17.56
2022-10-24T21:24:55.492Z,17.56
2022-10-24T21:27:45.760Z,17.55
2022-10-24T21:30:33.584Z,17.53
2022-10-24T21:33:20.955Z,17.54
2022-10-24T21:36:11.704Z,17.55
2022-10-24T21:39:00.591Z,17.55
2022-10-24T21:41:47.982Z,17.54
2022-10-24T21:44:36.334Z,17.53
2022-10-24T21:47:23.926Z,17.52
2022-10-24T21:50:11.518Z,17.53
2022-10-24T21:52:59.913Z,17.52
2022-10-24T21:55:48.642Z,17.50
2022-10-24T21:58:36.675Z,17.48
2022-10-24T22:01:26.560Z,17.46
2022-10-24T22:04:15.426Z,17.47
2022-10-24T22:07:07.341Z,17.44
2022-10-24T22:09:54.862Z,17.45
2022-10-24T22:12:43.632Z,17.44
2022-10-24T22:15:33.190Z,17.42
2022-10-24T22:18:20.940Z,17.41
2022-10-24T22:21:15.763Z,17.41
2022-10-24T22:26:57.763Z,17.36
2022-10-24T22:29:46.698Z,17.35
2022-10-24T22:32:34.933Z,17.34
2022-10-24T22:35:23.766Z,17.32
2022-10-24T22:38:11.729Z,17.33
2022-10-24T22:41:01.526Z,17.33
2022-10-24T22:43:50.177Z,17.32
2022-10-24T22:47:03.026Z,17.31
2022-10-24T22:50:02.011Z,17.31
2022-10-24T22:52:50.186Z,17.31
2022-10-24T22:55:45.647Z,17.29
2022-10-24T22:58:33.922Z,17.28
2022-10-24T23:01:40.046Z,17.29
2022-10-24T23:04:37.456Z,17.26
2022-10-24T23:07:32.212Z,17.26
2022-10-24T23:10:23.199Z,17.25
2022-10-24T23:13:11.316Z,17.22
2022-10-24T23:16:06.639Z,17.22
2022-10-24T23:18:55.060Z,17.18
2022-10-24T23:21:51.594Z,17.17
2022-10-24T23:24:39.490Z,17.14
2022-10-24T23:27:36.047Z,17.13
2022-10-24T23:30:25.377Z,17.12
2022-10-24T23:33:27.420Z,17.11
2022-10-24T23:36:23.923Z,17.08
2022-10-24T23:39:16.641Z,17.07
2022-10-24T23:42:05.282Z,17.04
2022-10-24T23:44:53.332Z,17.04
2022-10-24T23:47:59.562Z,17.02
2022-10-24T23:50:55.684Z,17.00
2022-10-24T23:53:50.678Z,16.98
2022-10-24T23:56:42.114Z,16.96
2022-10-24T23:59:30.216Z,16.96
